x

Molasses Reef, Fl (mlrf1) Weather Station

8:00pm - Tue 19th Jun 2018 All times are EDT. -4 hours from GMT.

  • Wind
  • Sea Temp 84°f
  • Air Temp 82°f
  • Sea Pressure 1015mb
  • Molasses Reef, Fl
  • Molasses Reef, Fl

More Historic Weather Station data

Upgrade to MSW Pro to gain access to the past 30 days of data for over 8000 Wavebouys and Weather Stations around the globe.

Join

Comparision Forecast

View Surf forecast
   
Tue 06/19 8:00pm  -  1 mph 1015mb 84f 82f
6:00pm 2 3 mph 1014.5mb 84f 83f
5:00pm  -  2 mph 1014.6mb 83f 83f
3:00pm 3 5 mph 1015.6mb 83f 83f
2:00pm 6 6 mph 1016.3mb 83f 83f
1:00pm 5 5 mph 1016.7mb 83f 83f
12:00pm 5 6 mph 1017.3mb 83f 83f
11:00am 6 7 mph 1017.4mb 83f 82f
10:00am 6 6 mph 1017.4mb 83f 82f
8:00am 7 8 mph 1017.2mb 83f 81f
5:00am 1 2 mph 1015.8mb 83f 82f
3:00am  -  1 mph 1015.9mb 83f 82f
2:00am  -  1 mph 1016.6mb 83f 82f
1:00am  -  1 mph 1017.3mb 84f 82f
12:00am  -  3 mph 1018mb 84f 82f
Mon 06/18 11:00pm 1 3 mph 1017.8mb 84f 82f
10:00pm 2 3 mph 1017.6mb 84f 82f
9:00pm 5 6 mph 1017.4mb 84f 82f
8:00pm 9 10 mph 1017.1mb 84f 82f
7:00pm 10 11 mph 1016.9mb 84f 83f
6:00pm 9 10 mph 1017.1mb 84f 83f
5:00pm 9 10 mph 1017.7mb 84f 83f
4:00pm 9 11 mph 1018.3mb 84f 83f
2:00pm 9 9 mph 1018.9mb 84f 83f
1:00pm 2 5 mph 1019.4mb 84f 83f
12:00pm 10 11 mph 1019.6mb 84f 83f
11:00am 8
mph
1019.6mb - 83f
10:00am 6 6 mph 1019.5mb 83f 83f
9:00am 9 10 mph 1019.2mb 83f 83f
8:00am 9 10 mph 1018.9mb 83f 83f
7:00am 9 10 mph 1018.2mb 83f 83f
6:00am  -  1 mph 1018.1mb 83f 82f
Sun 06/17 9:00pm 8
mph
- - -
8:00pm 13 14 mph 1018.2mb 84f 83f
7:00pm 13 14 mph 1017.8mb 84f 83f
6:00pm 11 13 mph 1018mb 84f 83f
5:00pm 11 13 mph 1018.2mb 84f 83f
4:00pm 6 10 mph 1018.6mb 84f 83f
3:00pm 8 9 mph 1018.9mb 84f 84f
12:00pm 7 9 mph 1020.1mb 83f 83f
10:00am 1 2 mph 1019.9mb 83f 84f
9:00am 2 2 mph 1019.7mb 84f 84f
8:00am 6 7 mph 1019.5mb 84f 83f
7:00am 2 3 mph 1018.9mb 84f 83f
6:00am 2 2 mph 1018.3mb 84f 82f
5:00am 3 5 mph 1017.6mb 84f 82f
4:00am 2 5 mph 1017.5mb 84f 82f
3:00am 2 5 mph 1017.7mb 84f 82f
2:00am 1 3 mph 1018.2mb 84f 82f
1:00am 5 6 mph 1018.6mb 83f 83f
12:00am 8 8 mph 1018.8mb 83f 83f
Sat 06/16 11:00pm 7 8 mph 1018.8mb 83f 83f
10:00pm 3 7 mph 1018.5mb 83f 83f
8:00pm 8 9 mph 1017.5mb 83f 83f
7:00pm 13 13 mph 1017.2mb 83f 83f
6:00pm 10 11 mph 1016.8mb 83f 83f
5:00pm 3 5 mph 1017.2mb 83f 83f
4:00pm 7 7 mph 1017.3mb 83f 83f
3:00pm 10 11 mph 1018.1mb 83f 83f
2:00pm 10 11 mph 1018.4mb 83f 83f
1:00pm 8 9 mph 1018.9mb 83f 83f
12:00pm 8 8 mph 1019.1mb 83f 83f
11:00am 6 7 mph 1019.2mb 83f 83f
10:00am 5 6 mph 1018.9mb 83f 83f
7:00am 5 5 mph 1017.3mb 83f 82f
6:00am 6 7 mph 1017mb 83f 82f
5:00am 7 8 mph 1017.1mb 83f 82f
4:00am 6 7 mph 1016.8mb 83f 82f
3:00am 5 6 mph 1017.1mb 83f 82f
2:00am 5 6 mph 1017.5mb 83f 82f